Bullsbrook Pearce, Western Australia

11:10 AM WST on August 28, 2014 (GMT +0800)
Aveley | Change Station
CLOSE
Current Station
Personal Weather Station
Location: Aveley, WESTERN AUSTRALIA
Elevation: 125 ft
Nearby Weather Stations

Elev 125 ft 31.77 °S, 115.98 °E | Updated 4 minutes ago

Clear
Clear
72.9 °F
Feels Like 77 °F
N
4.0
Wind Variable Wind from North
Gusts 7.0 mph

Today
High -- | Low -- °F
--% Chance of Precip.
Yesterday
High -- | Low -- °F
Precip. -- in
6:37 AM 5:57 PM
Waxing Crescent, 6% visible
Pressure 30.01 in
Visibility -9999.0 miles
Clouds
Heat Index 77 °F
Dew Point 53 °F
Humidity 50%
Rainfall 0.00 in
Snow Depth Not available.
UV 8.0 out of 12
Pollen Not available.
Air Quality Not available.
Flu Activity Not available.
METAR YPPH 280300Z 36007KT CAVOK 20/10 Q1016 NOSIG

More Conditions Fewer Conditions

Pressure 30.01 in
Visibility -9999.0 miles
Clouds
Heat Index 77 °F
Dew Point 53 °F
Humidity 50%
Rainfall 0.00 in
Snow Depth Not available.
UV 8.0 out of 12
Pollen Not available.
Air Quality Not available.
Flu Activity Not available.
METAR YPPH 280300Z 36007KT CAVOK 20/10 Q1016 NOSIG

More Conditions Fewer Conditions

10-Day Weather Forecast

Almanac

Astronomy

Aug. 28, 2014 Rise Set
Actual Time 6:37 AM WST 5:57 PM WST
Civil Twilight 6:13 AM WST 6:21 PM WST
Nautical Twilight 5:44 AM WST 6:50 PM WST
Astronomical Twilight 5:16 AM WST 7:18 PM WST
Moon 7:47 AM WST 8:23 PM WST
Length of Visible Light 12h 08m
Length of Day
11h 19m
Tomorrow will be 1m 47s longer.
Waxing Crescent, 6% of the Moon is Illuminated
Aug 27
Waxing Crescent
Sep 2
First Quarter
Sep 8
Full
Sep 15
Last Quarter
Sep 24
New

Yesterday's Extremes

Country Highs Country Lows

Community

WunderPhotos

Upload Photos

1,747,892 photos uploaded!

Nearby

Snow Depth

Not available.

Earthquake Activity

City Distance Mag. Time & Date
No recent earthquake activity has been reported nearby.
Minimum magnitude displayed is 2.5.

Coastal Water Temperatures

Place Temperature
No Stations Reporting

Nearby Weather Stations